sensor_id;sensor_type;location;lat;lon;timestamp;P1;durP1;ratioP1;P2;durP2;ratioP2
71902;SDS011;59778;50.310;18.780;2023-02-28T00:13:35;40.13;;;14.80;;
71902;SDS011;59778;50.310;18.780;2023-02-28T00:28:58;32.33;;;10.37;;
71902;SDS011;59778;50.310;18.780;2023-02-28T00:44:20;40.20;;;11.67;;
71902;SDS011;59778;50.310;18.780;2023-02-28T00:59:42;35.40;;;11.70;;
71902;SDS011;59778;50.310;18.780;2023-02-28T01:15:03;39.77;;;12.20;;
71902;SDS011;59778;50.310;18.780;2023-02-28T01:30:25;32.20;;;11.27;;
71902;SDS011;59778;50.310;18.780;2023-02-28T01:45:46;26.63;;;9.30;;
71902;SDS011;59778;50.310;18.780;2023-02-28T02:01:08;30.20;;;9.60;;
71902;SDS011;59778;50.310;18.780;2023-02-28T02:47:49;35.07;;;11.20;;
71902;SDS011;59778;50.310;18.780;2023-02-28T03:03:11;26.80;;;9.33;;
71902;SDS011;59778;50.310;18.780;2023-02-28T03:18:44;35.13;;;11.90;;
71902;SDS011;59778;50.310;18.780;2023-02-28T03:34:37;40.50;;;11.80;;
71902;SDS011;59778;50.310;18.780;2023-02-28T03:50:11;30.53;;;9.73;;
71902;SDS011;59778;50.310;18.780;2023-02-28T04:05:48;28.60;;;9.30;;
71902;SDS011;59778;50.310;18.780;2023-02-28T04:21:13;29.13;;;9.87;;
71902;SDS011;59778;50.310;18.780;2023-02-28T04:36:34;25.73;;;9.33;;
71902;SDS011;59778;50.310;18.780;2023-02-28T04:51:56;54.07;;;17.27;;
71902;SDS011;59778;50.310;18.780;2023-02-28T05:07:17;64.60;;;21.20;;
71902;SDS011;59778;50.310;18.780;2023-02-28T05:22:39;34.43;;;14.57;;
71902;SDS011;59778;50.310;18.780;2023-02-28T05:38:01;35.67;;;15.03;;
71902;SDS011;59778;50.310;18.780;2023-02-28T05:53:23;57.23;;;18.40;;
71902;SDS011;59778;50.310;18.780;2023-02-28T06:08:44;45.77;;;14.20;;
71902;SDS011;59778;50.310;18.780;2023-02-28T06:24:06;37.40;;;12.80;;
71902;SDS011;59778;50.310;18.780;2023-02-28T06:39:29;39.87;;;13.80;;
71902;SDS011;59778;50.310;18.780;2023-02-28T06:54:50;53.80;;;16.30;;
71902;SDS011;59778;50.310;18.780;2023-02-28T07:10:20;47.87;;;16.30;;
71902;SDS011;59778;50.310;18.780;2023-02-28T07:25:41;41.40;;;15.23;;
71902;SDS011;59778;50.310;18.780;2023-02-28T07:41:03;35.33;;;13.47;;
71902;SDS011;59778;50.310;18.780;2023-02-28T07:56:27;31.73;;;12.20;;
71902;SDS011;59778;50.310;18.780;2023-02-28T08:11:48;34.10;;;13.77;;
71902;SDS011;59778;50.310;18.780;2023-02-28T08:27:10;30.43;;;10.70;;
71902;SDS011;59778;50.310;18.780;2023-02-28T08:42:31;29.30;;;11.87;;
71902;SDS011;59778;50.310;18.780;2023-02-28T08:57:54;27.40;;;11.23;;
71902;SDS011;59778;50.310;18.780;2023-02-28T09:13:16;19.60;;;7.93;;
71902;SDS011;59778;50.310;18.780;2023-02-28T09:28:39;30.40;;;11.97;;
71902;SDS011;59778;50.310;18.780;2023-02-28T09:44:02;23.03;;;8.80;;
71902;SDS011;59778;50.310;18.780;2023-02-28T09:59:29;22.13;;;9.00;;
71902;SDS011;59778;50.310;18.780;2023-02-28T10:14:53;22.37;;;10.57;;
71902;SDS011;59778;50.310;18.780;2023-02-28T10:30:16;47.43;;;18.50;;
71902;SDS011;59778;50.310;18.780;2023-02-28T10:45:37;35.57;;;14.37;;
71902;SDS011;59778;50.310;18.780;2023-02-28T11:00:59;29.43;;;13.40;;
71902;SDS011;59778;50.310;18.780;2023-02-28T11:16:21;27.50;;;11.00;;
71902;SDS011;59778;50.310;18.780;2023-02-28T12:18:36;28.83;;;12.10;;
71902;SDS011;59778;50.310;18.780;2023-02-28T12:34:14;20.67;;;9.97;;
71902;SDS011;59778;50.310;18.780;2023-02-28T12:49:56;25.87;;;10.27;;
71902;SDS011;59778;50.310;18.780;2023-02-28T13:21:27;23.33;;;12.10;;
71902;SDS011;59778;50.310;18.780;2023-02-28T13:36:50;56.70;;;21.43;;
71902;SDS011;59778;50.310;18.780;2023-02-28T13:52:18;35.53;;;13.10;;
71902;SDS011;59778;50.310;18.780;2023-02-28T14:07:53;45.43;;;17.80;;
71902;SDS011;59778;50.310;18.780;2023-02-28T14:39:03;25.23;;;11.20;;
71902;SDS011;59778;50.310;18.780;2023-02-28T14:54:28;32.30;;;14.20;;
71902;SDS011;59778;50.310;18.780;2023-02-28T15:10:01;25.57;;;11.97;;
71902;SDS011;59778;50.310;18.780;2023-02-28T15:25:39;32.03;;;14.17;;
71902;SDS011;59778;50.310;18.780;2023-02-28T15:41:02;40.00;;;14.73;;
71902;SDS011;59778;50.310;18.780;2023-02-28T16:11:59;56.50;;;38.23;;
71902;SDS011;59778;50.310;18.780;2023-02-28T16:27:30;45.90;;;18.07;;
71902;SDS011;59778;50.310;18.780;2023-02-28T16:42:55;85.27;;;27.23;;
71902;SDS011;59778;50.310;18.780;2023-02-28T16:58:20;69.93;;;25.57;;
71902;SDS011;59778;50.310;18.780;2023-02-28T17:13:42;67.03;;;24.67;;
71902;SDS011;59778;50.310;18.780;2023-02-28T17:29:05;112.37;;;37.90;;
71902;SDS011;59778;50.310;18.780;2023-02-28T17:44:35;223.07;;;74.20;;
71902;SDS011;59778;50.310;18.780;2023-02-28T17:59:58;145.03;;;51.17;;
71902;SDS011;59778;50.310;18.780;2023-02-28T18:15:20;176.43;;;61.07;;
71902;SDS011;59778;50.310;18.780;2023-02-28T18:30:45;460.50;;;150.93;;
71902;SDS011;59778;50.310;18.780;2023-02-28T18:46:08;275.47;;;89.80;;
71902;SDS011;59778;50.310;18.780;2023-02-28T19:01:33;351.07;;;111.23;;
71902;SDS011;59778;50.310;18.780;2023-02-28T19:16:55;296.67;;;93.07;;
71902;SDS011;59778;50.310;18.780;2023-02-28T19:32:16;248.07;;;77.53;;
71902;SDS011;59778;50.310;18.780;2023-02-28T19:47:40;238.80;;;76.93;;
71902;SDS011;59778;50.310;18.780;2023-02-28T20:03:03;244.70;;;76.10;;
71902;SDS011;59778;50.310;18.780;2023-02-28T20:18:25;337.87;;;104.97;;
71902;SDS011;59778;50.310;18.780;2023-02-28T20:33:55;232.97;;;72.03;;
71902;SDS011;59778;50.310;18.780;2023-02-28T20:49:19;237.83;;;78.23;;
71902;SDS011;59778;50.310;18.780;2023-02-28T21:04:40;377.40;;;111.10;;
71902;SDS011;59778;50.310;18.780;2023-02-28T21:20:02;361.97;;;104.80;;
71902;SDS011;59778;50.310;18.780;2023-02-28T21:35:24;320.23;;;96.50;;
71902;SDS011;59778;50.310;18.780;2023-02-28T21:50:54;334.53;;;99.33;;
71902;SDS011;59778;50.310;18.780;2023-02-28T22:06:21;284.07;;;86.17;;
71902;SDS011;59778;50.310;18.780;2023-02-28T22:21:44;275.77;;;89.70;;
71902;SDS011;59778;50.310;18.780;2023-02-28T22:37:07;287.87;;;89.93;;
71902;SDS011;59778;50.310;18.780;2023-02-28T22:52:28;277.10;;;89.73;;
71902;SDS011;59778;50.310;18.780;2023-02-28T23:07:49;280.00;;;86.47;;
71902;SDS011;59778;50.310;18.780;2023-02-28T23:23:11;249.77;;;79.70;;
71902;SDS011;59778;50.310;18.780;2023-02-28T23:38:33;263.07;;;77.50;;
71902;SDS011;59778;50.310;18.780;2023-02-28T23:53:54;227.13;;;68.63;;
